• pl
  • eng

Awiacja
Military airports TAF 01:00 01.01.1970

TAF EPCE 182300Z 1900/1909 29006KT 5000 BR BKN007 PROB40 1900/1905
0400 FG OVC00 3 BECMG 1906/1908 9999 SCT020=

TAF EPCE 190200Z 1903/1912 29006KT 3000 BR BKN004 BECMG 1903/1906
0400 FG BKN002 BECMG 1906/1908 9999 SCT020 =

TAF EPDA 182300Z 1900/1909 30008KT 9999 BKN017 PROB30 TEMPO 1901/1905
3000 RADZ BR BKN003 BECMG 1905/1908 BKN040=

TAF EPDA 190200Z 1903/1912 27006KT 8000 -RA NSC PROB30 TEMPO
1903/1906 3000 RADZ BR BKN005 BKN010 =

TAF EPKS 182300Z 1900/1909 31010KT 9999 BKN010
PROB40 TEMPO 1903/1906 -RADZ BR BKN004=

TAF EPKS 190200Z 1903/1912 31010KT 9999 BKN010
PROB40 TEMPO 1903/1906 -RADZ BR BKN004 =

TAF EPLY 182300Z 1900/1909 30006KT 9999 BKN006 OVC010 PROB30
1901/1906 4000 RA B R BKN003=

TAF EPLY 190200Z 1903/1912 31010KT 9999 BKN008 OVC017 PROB40 TEMPO
1903/1912 4500 SHRA BKN015CB PROB40 1903/1908 BKN004=

TAF EPMB 182300Z 1900/1909 30005KT 7000 SCT100 PROB40 1901/1906 5000
BR BKN007=

TAF EPMB 190200Z 1903/1912 31008KT 6000 SCT100 PROB40 1903/1906 5000
BR BKN007 BECMG 1906/1908 35008KT 9999 SCT025=

TAF EPMI 182300Z 1900/1909 31008KT 6000 BKN004 OVC012 TEMPO 1900/1903
3000 BR BK N003 PROB40 1903/1909 4000 SHRA BKN010CB=

TAF EPMI 190200Z 1903/1912 31008KT 6000 BKN004 OVC012 TEMPO 1903/1910
4000 SHRA BKN010CB BECMG 1909/1912 9999 BKN014 =

TAF EPMM 182300Z 1900/1909 34008KT 9999 SCT040 BKN070 PROB40 TEMPO
1901/1905 400 0 BR BKN005=

TAF EPMM 190200Z 1903/1912 34008KT 4000 BR BKN003 BECMG 1905/1908
8000 SCT008 BKN020 =

TAF AMD EPOK 182342Z 1900/1909 32012KT 9999 SCT005 PROB40 TEMPO
1900/1903 BKN005 PROB30 TEMPO 1906/1909 SHRA BKN020CB =

TAF AMD EPOK 182342Z 1900/1909 32012KT 9999 SCT005 PROB40 TEMPO
1900/1903 BKN005 PROB30 TEMPO 1906/1909 SHRA BKN020CB=

TAF EPOK 190200Z 1903/1912 32012KT 9999 SCT020 PROB30 TEMPO 1903/1906
BKN005 PROB30 TEMPO 1906/1910 SHRA BKN020CB =

TAF EPPR 182300Z 1900/1909 30007KT CAVOK=

TAF EPPW 182300Z 1900/1909 31010KT 9999 BKN008 OVC015 PROB40 TEMPO
1902/1909 400 0 SHRA BKN012CB PROB30 1902/1908 BKN004=

TAF EPPW 190200Z 1903/1912 31010KT 9999 BKN008 OVC015 PROB40 TEMPO
1903/1912 4500 SHRA BKN012CB PROB30 1903/1908 BKN004=
Awiacja.imgw.pl jest pogodowym serwisem informacyjnym
Instytutu Meteorologii i Gospodarki Wodnej Państwowego Instytutu Badawczego.
Copyright IMGW PIB 2009-2011© Wszelkie prawa zastrzeżone.